Fort Worth - NOAA's Hourly Summary for Sunday, July 8, 2018
Hour Temp
(f)
RH
(%)
Solar Rad.
(MJ/m2)
Rainfall
(in)
Wind
(mph)
7/8/2018 12:00 AM 85 57 0 0 5.5
7/8/2018 1:00 AM 83 60 0 0 4.75
7/8/2018 2:00 AM 81 65 0 0 3.25
7/8/2018 3:00 AM 80 68 0 0 2.85
7/8/2018 4:00 AM 78 72 0 0 2.12
7/8/2018 5:00 AM 78 73 0 0 0.42
7/8/2018 6:00 AM 78 74 0.02 0 2.63
7/8/2018 7:00 AM 80 70 0.3 0 3.33
7/8/2018 8:00 AM 82 64 0.78 0 4.26
7/8/2018 9:00 AM 85 59 1.65 0 6.59
7/8/2018 10:00 AM 85 56 1.46 0 5.13
7/8/2018 11:00 AM 88 52 2.38 0 6.45
7/8/2018 12:00 PM 89 48 1.81 0 7.85
7/8/2018 1:00 PM 90 43 2.05 0 7.86
7/8/2018 2:00 PM 92 40 2.75 0 9.29
7/8/2018 3:00 PM 93 39 2.47 0 8.98
7/8/2018 4:00 PM 94 35 2.66 0 11.78
7/8/2018 5:00 PM 94 34 2 0 10.22
7/8/2018 6:00 PM 89 46 0.49 0 10.38
7/8/2018 7:00 PM 88 48 0.29 0 9.24
7/8/2018 8:00 PM 86 53 0.05 0 8.3
7/8/2018 9:00 PM 84 58 0 0 6.29
7/8/2018 10:00 PM 82 59 0 0 5.54
7/8/2018 11:00 PM 81 62 0 0 3.74
Data Summary 85 55 21.16 0.00 6.11